sensor_id;sensor_type;location;lat;lon;timestamp;temperature;humidity
65972;SHT31;52726;48.852;9.152;2022-09-16T00:00:26;13.56;87.45
65972;SHT31;52726;48.852;9.152;2022-09-16T00:02:52;13.58;87.74
65972;SHT31;52726;48.852;9.152;2022-09-16T00:05:19;13.56;88.05
65972;SHT31;52726;48.852;9.152;2022-09-16T00:07:45;13.59;88.71
65972;SHT31;52726;48.852;9.152;2022-09-16T00:10:10;13.55;88.30
65972;SHT31;52726;48.852;9.152;2022-09-16T00:12:36;13.54;88.24
65972;SHT31;52726;48.852;9.152;2022-09-16T00:15:05;13.52;88.29
65972;SHT31;52726;48.852;9.152;2022-09-16T00:17:30;13.54;88.32
65972;SHT31;52726;48.852;9.152;2022-09-16T00:19:56;13.54;87.87
65972;SHT31;52726;48.852;9.152;2022-09-16T00:22:22;13.56;88.11
65972;SHT31;52726;48.852;9.152;2022-09-16T00:24:48;13.56;87.69
65972;SHT31;52726;48.852;9.152;2022-09-16T00:27:14;13.58;87.84
65972;SHT31;52726;48.852;9.152;2022-09-16T00:29:39;13.58;87.69
65972;SHT31;52726;48.852;9.152;2022-09-16T00:32:04;13.55;87.97
65972;SHT31;52726;48.852;9.152;2022-09-16T00:34:30;13.51;88.66
65972;SHT31;52726;48.852;9.152;2022-09-16T00:36:55;13.52;88.85
65972;SHT31;52726;48.852;9.152;2022-09-16T00:39:20;13.48;88.55
65972;SHT31;52726;48.852;9.152;2022-09-16T00:41:46;13.46;89.67
65972;SHT31;52726;48.852;9.152;2022-09-16T00:49:48;13.42;89.60
65972;SHT31;52726;48.852;9.152;2022-09-16T00:52:15;13.41;89.35
65972;SHT31;52726;48.852;9.152;2022-09-16T00:54:42;13.45;89.54
65972;SHT31;52726;48.852;9.152;2022-09-16T00:57:09;13.45;90.23
65972;SHT31;52726;48.852;9.152;2022-09-16T00:59:39;13.41;89.84
65972;SHT31;52726;48.852;9.152;2022-09-16T01:02:07;13.44;90.02
65972;SHT31;52726;48.852;9.152;2022-09-16T01:04:39;13.44;89.94
65972;SHT31;52726;48.852;9.152;2022-09-16T01:07:07;13.42;90.06
65972;SHT31;52726;48.852;9.152;2022-09-16T01:09:33;13.42;89.87
65972;SHT31;52726;48.852;9.152;2022-09-16T01:11:58;13.44;90.05
65972;SHT31;52726;48.852;9.152;2022-09-16T01:14:25;13.45;90.11
65972;SHT31;52726;48.852;9.152;2022-09-16T01:17:19;13.44;89.88
65972;SHT31;52726;48.852;9.152;2022-09-16T01:28:36;13.45;89.28
65972;SHT31;52726;48.852;9.152;2022-09-16T01:39:22;13.42;89.25
65972;SHT31;52726;48.852;9.152;2022-09-16T01:41:56;13.37;89.20
65972;SHT31;52726;48.852;9.152;2022-09-16T01:44:52;13.32;88.61
65972;SHT31;52726;48.852;9.152;2022-09-16T01:50:25;13.27;88.11
65972;SHT31;52726;48.852;9.152;2022-09-16T01:55:29;13.21;88.03
65972;SHT31;52726;48.852;9.152;2022-09-16T01:58:08;13.18;87.78
65972;SHT31;52726;48.852;9.152;2022-09-16T02:00:36;13.17;87.96
65972;SHT31;52726;48.852;9.152;2022-09-16T02:03:09;13.10;88.29
65972;SHT31;52726;48.852;9.152;2022-09-16T02:05:41;13.03;88.38
65972;SHT31;52726;48.852;9.152;2022-09-16T02:08:14;12.97;89.01
65972;SHT31;52726;48.852;9.152;2022-09-16T02:10:49;12.91;89.02
65972;SHT31;52726;48.852;9.152;2022-09-16T02:13:26;12.86;88.47
65972;SHT31;52726;48.852;9.152;2022-09-16T02:15:53;12.79;88.52
65972;SHT31;52726;48.852;9.152;2022-09-16T02:18:23;12.73;88.82
65972;SHT31;52726;48.852;9.152;2022-09-16T02:20:52;12.64;89.31
65972;SHT31;52726;48.852;9.152;2022-09-16T02:23:25;12.55;89.17
65972;SHT31;52726;48.852;9.152;2022-09-16T02:25:54;12.49;89.69
65972;SHT31;52726;48.852;9.152;2022-09-16T02:28:24;12.48;89.00
65972;SHT31;52726;48.852;9.152;2022-09-16T02:30:54;12.48;88.37
65972;SHT31;52726;48.852;9.152;2022-09-16T02:33:22;12.49;88.39
65972;SHT31;52726;48.852;9.152;2022-09-16T02:35:51;12.46;88.39
65972;SHT31;52726;48.852;9.152;2022-09-16T02:38:25;12.46;88.21
65972;SHT31;52726;48.852;9.152;2022-09-16T02:40:55;12.46;88.31
65972;SHT31;52726;48.852;9.152;2022-09-16T02:43:21;12.43;88.27
65972;SHT31;52726;48.852;9.152;2022-09-16T02:46:15;12.38;88.32
65972;SHT31;52726;48.852;9.152;2022-09-16T02:48:54;12.36;88.22
65972;SHT31;52726;48.852;9.152;2022-09-16T02:51:40;12.32;88.10
65972;SHT31;52726;48.852;9.152;2022-09-16T02:54:55;12.29;88.11
65972;SHT31;52726;48.852;9.152;2022-09-16T02:57:18;12.29;88.30
65972;SHT31;52726;48.852;9.152;2022-09-16T02:59:44;12.28;88.69
65972;SHT31;52726;48.852;9.152;2022-09-16T03:02:10;12.20;89.08
65972;SHT31;52726;48.852;9.152;2022-09-16T03:04:35;12.17;89.78
65972;SHT31;52726;48.852;9.152;2022-09-16T03:07:03;12.17;88.76
65972;SHT31;52726;48.852;9.152;2022-09-16T03:09:30;12.11;89.58
65972;SHT31;52726;48.852;9.152;2022-09-16T03:17:54;12.11;89.34
65972;SHT31;52726;48.852;9.152;2022-09-16T03:23:18;12.20;87.73
65972;SHT31;52726;48.852;9.152;2022-09-16T03:31:17;12.29;87.82
65972;SHT31;52726;48.852;9.152;2022-09-16T03:33:46;12.29;87.68
65972;SHT31;52726;48.852;9.152;2022-09-16T03:36:17;12.35;87.69
65972;SHT31;52726;48.852;9.152;2022-09-16T03:38:43;12.38;86.97
65972;SHT31;52726;48.852;9.152;2022-09-16T03:41:09;12.42;86.84
65972;SHT31;52726;48.852;9.152;2022-09-16T03:43:35;12.46;87.12
65972;SHT31;52726;48.852;9.152;2022-09-16T03:46:01;12.50;86.63
65972;SHT31;52726;48.852;9.152;2022-09-16T03:48:26;12.56;85.76
65972;SHT31;52726;48.852;9.152;2022-09-16T03:50:51;12.62;85.45
65972;SHT31;52726;48.852;9.152;2022-09-16T03:53:17;12.66;85.07
65972;SHT31;52726;48.852;9.152;2022-09-16T03:55:42;12.75;84.91
65972;SHT31;52726;48.852;9.152;2022-09-16T03:58:08;12.77;84.62
65972;SHT31;52726;48.852;9.152;2022-09-16T04:00:33;12.79;84.65
65972;SHT31;52726;48.852;9.152;2022-09-16T04:02:59;12.80;84.76
65972;SHT31;52726;48.852;9.152;2022-09-16T04:05:25;12.80;84.57
65972;SHT31;52726;48.852;9.152;2022-09-16T04:07:50;12.81;84.47
65972;SHT31;52726;48.852;9.152;2022-09-16T04:10:16;12.81;84.17
65972;SHT31;52726;48.852;9.152;2022-09-16T04:12:42;12.83;84.48
65972;SHT31;52726;48.852;9.152;2022-09-16T04:15:07;12.83;84.21
65972;SHT31;52726;48.852;9.152;2022-09-16T04:17:33;12.83;84.13
65972;SHT31;52726;48.852;9.152;2022-09-16T04:19:59;12.84;84.55
65972;SHT31;52726;48.852;9.152;2022-09-16T04:22:28;12.86;85.07
65972;SHT31;52726;48.852;9.152;2022-09-16T04:24:54;12.79;85.29
65972;SHT31;52726;48.852;9.152;2022-09-16T04:27:19;12.80;84.62
65972;SHT31;52726;48.852;9.152;2022-09-16T04:29:45;12.81;85.03
65972;SHT31;52726;48.852;9.152;2022-09-16T04:32:10;12.81;84.95
65972;SHT31;52726;48.852;9.152;2022-09-16T04:34:36;12.81;85.11
65972;SHT31;52726;48.852;9.152;2022-09-16T04:37:01;12.83;85.41
65972;SHT31;52726;48.852;9.152;2022-09-16T04:39:26;12.83;86.28
65972;SHT31;52726;48.852;9.152;2022-09-16T04:41:52;12.81;87.04
65972;SHT31;52726;48.852;9.152;2022-09-16T04:44:17;12.81;87.36
65972;SHT31;52726;48.852;9.152;2022-09-16T04:46:43;12.79;88.00
65972;SHT31;52726;48.852;9.152;2022-09-16T04:49:08;12.80;87.90
65972;SHT31;52726;48.852;9.152;2022-09-16T04:51:33;12.79;88.38
65972;SHT31;52726;48.852;9.152;2022-09-16T04:53:59;12.79;88.55
65972;SHT31;52726;48.852;9.152;2022-09-16T04:56:28;12.79;88.23
65972;SHT31;52726;48.852;9.152;2022-09-16T04:58:58;12.80;88.47
65972;SHT31;52726;48.852;9.152;2022-09-16T05:01:26;12.80;88.71
65972;SHT31;52726;48.852;9.152;2022-09-16T05:03:54;12.79;88.81
65972;SHT31;52726;48.852;9.152;2022-09-16T05:06:23;12.80;89.17
65972;SHT31;52726;48.852;9.152;2022-09-16T05:08:50;12.77;89.51
65972;SHT31;52726;48.852;9.152;2022-09-16T05:11:23;12.76;89.00
65972;SHT31;52726;48.852;9.152;2022-09-16T05:13:49;12.80;90.41
65972;SHT31;52726;48.852;9.152;2022-09-16T05:16:20;12.79;90.43
65972;SHT31;52726;48.852;9.152;2022-09-16T05:18:47;12.75;89.70
65972;SHT31;52726;48.852;9.152;2022-09-16T05:21:16;12.72;89.46
65972;SHT31;52726;48.852;9.152;2022-09-16T05:23:43;12.73;89.91
65972;SHT31;52726;48.852;9.152;2022-09-16T05:26:12;12.73;90.08
65972;SHT31;52726;48.852;9.152;2022-09-16T05:28:38;12.69;89.59
65972;SHT31;52726;48.852;9.152;2022-09-16T05:33:42;12.75;90.20
65972;SHT31;52726;48.852;9.152;2022-09-16T05:36:10;12.73;90.15
65972;SHT31;52726;48.852;9.152;2022-09-16T05:38:36;12.75;90.24
65972;SHT31;52726;48.852;9.152;2022-09-16T05:41:02;12.73;90.96
65972;SHT31;52726;48.852;9.152;2022-09-16T05:43:28;12.73;90.11
65972;SHT31;52726;48.852;9.152;2022-09-16T05:45:54;12.73;90.00
65972;SHT31;52726;48.852;9.152;2022-09-16T05:48:20;12.73;89.80
65972;SHT31;52726;48.852;9.152;2022-09-16T05:50:54;12.73;89.91
65972;SHT31;52726;48.852;9.152;2022-09-16T05:53:20;12.77;89.84
65972;SHT31;52726;48.852;9.152;2022-09-16T05:58:25;12.73;88.77
65972;SHT31;52726;48.852;9.152;2022-09-16T06:00:51;12.72;88.54
65972;SHT31;52726;48.852;9.152;2022-09-16T06:03:17;12.73;88.79
65972;SHT31;52726;48.852;9.152;2022-09-16T06:05:42;12.77;89.31
65972;SHT31;52726;48.852;9.152;2022-09-16T06:08:08;12.73;88.46
65972;SHT31;52726;48.852;9.152;2022-09-16T06:10:38;12.73;89.20
65972;SHT31;52726;48.852;9.152;2022-09-16T06:13:04;12.72;89.41
65972;SHT31;52726;48.852;9.152;2022-09-16T06:15:29;12.72;90.43
65972;SHT31;52726;48.852;9.152;2022-09-16T06:17:55;12.67;88.42
65972;SHT31;52726;48.852;9.152;2022-09-16T06:20:21;12.69;88.40
65972;SHT31;52726;48.852;9.152;2022-09-16T06:22:46;12.70;89.34
65972;SHT31;52726;48.852;9.152;2022-09-16T06:25:11;12.70;90.07
65972;SHT31;52726;48.852;9.152;2022-09-16T06:27:37;12.66;89.28
65972;SHT31;52726;48.852;9.152;2022-09-16T06:30:03;12.66;89.67
65972;SHT31;52726;48.852;9.152;2022-09-16T06:32:31;12.67;89.70
65972;SHT31;52726;48.852;9.152;2022-09-16T06:34:56;12.64;89.78
65972;SHT31;52726;48.852;9.152;2022-09-16T06:37:22;12.59;89.68
65972;SHT31;52726;48.852;9.152;2022-09-16T06:39:47;12.57;89.63
65972;SHT31;52726;48.852;9.152;2022-09-16T06:42:12;12.53;89.99
65972;SHT31;52726;48.852;9.152;2022-09-16T06:44:38;12.52;90.58
65972;SHT31;52726;48.852;9.152;2022-09-16T06:47:03;12.48;90.48
65972;SHT31;52726;48.852;9.152;2022-09-16T06:49:29;12.45;91.79
65972;SHT31;52726;48.852;9.152;2022-09-16T06:51:54;12.38;91.90
65972;SHT31;52726;48.852;9.152;2022-09-16T06:54:19;12.38;92.61
65972;SHT31;52726;48.852;9.152;2022-09-16T06:56:44;12.35;92.49
65972;SHT31;52726;48.852;9.152;2022-09-16T06:59:10;12.31;92.97
65972;SHT31;52726;48.852;9.152;2022-09-16T07:01:38;12.25;92.88
65972;SHT31;52726;48.852;9.152;2022-09-16T07:04:06;12.21;92.31
65972;SHT31;52726;48.852;9.152;2022-09-16T07:06:32;12.22;92.98
65972;SHT31;52726;48.852;9.152;2022-09-16T07:08:58;12.12;92.38
65972;SHT31;52726;48.852;9.152;2022-09-16T07:11:24;12.11;92.66
65972;SHT31;52726;48.852;9.152;2022-09-16T07:13:50;12.10;92.68
65972;SHT31;52726;48.852;9.152;2022-09-16T07:16:21;12.12;93.27
65972;SHT31;52726;48.852;9.152;2022-09-16T07:18:54;12.15;93.61
65972;SHT31;52726;48.852;9.152;2022-09-16T07:21:21;12.17;93.81
65972;SHT31;52726;48.852;9.152;2022-09-16T07:23:49;12.29;94.77
65972;SHT31;52726;48.852;9.152;2022-09-16T07:26:20;12.29;94.50
65972;SHT31;52726;48.852;9.152;2022-09-16T07:28:47;12.22;93.34
65972;SHT31;52726;48.852;9.152;2022-09-16T07:31:16;12.12;92.99
65972;SHT31;52726;48.852;9.152;2022-09-16T07:33:44;12.11;92.31
65972;SHT31;52726;48.852;9.152;2022-09-16T07:36:12;12.10;92.23
65972;SHT31;52726;48.852;9.152;2022-09-16T07:38:37;12.06;91.67
65972;SHT31;52726;48.852;9.152;2022-09-16T07:41:07;12.14;92.45
65972;SHT31;52726;48.852;9.152;2022-09-16T07:43:33;12.14;93.24
65972;SHT31;52726;48.852;9.152;2022-09-16T07:46:00;12.15;93.12
65972;SHT31;52726;48.852;9.152;2022-09-16T07:48:28;12.18;92.74
65972;SHT31;52726;48.852;9.152;2022-09-16T07:50:59;12.17;92.46
65972;SHT31;52726;48.852;9.152;2022-09-16T07:53:26;12.20;92.82
65972;SHT31;52726;48.852;9.152;2022-09-16T07:55:52;12.33;93.05
65972;SHT31;52726;48.852;9.152;2022-09-16T07:58:18;12.38;92.44
65972;SHT31;52726;48.852;9.152;2022-09-16T08:00:44;12.48;91.86
65972;SHT31;52726;48.852;9.152;2022-09-16T08:03:09;12.50;91.96
65972;SHT31;52726;48.852;9.152;2022-09-16T08:05:34;12.55;92.26
65972;SHT31;52726;48.852;9.152;2022-09-16T08:08:00;12.59;92.66
65972;SHT31;52726;48.852;9.152;2022-09-16T08:10:26;12.56;91.31
65972;SHT31;52726;48.852;9.152;2022-09-16T08:12:51;12.72;92.35
65972;SHT31;52726;48.852;9.152;2022-09-16T08:15:16;12.84;93.09
65972;SHT31;52726;48.852;9.152;2022-09-16T08:17:42;12.89;92.34
65972;SHT31;52726;48.852;9.152;2022-09-16T08:20:07;12.84;92.09
65972;SHT31;52726;48.852;9.152;2022-09-16T08:22:33;12.83;92.07
65972;SHT31;52726;48.852;9.152;2022-09-16T08:24:59;12.84;92.24
65972;SHT31;52726;48.852;9.152;2022-09-16T08:27:24;12.79;91.65
65972;SHT31;52726;48.852;9.152;2022-09-16T08:29:50;12.89;92.45
65972;SHT31;52726;48.852;9.152;2022-09-16T08:32:15;12.86;91.65
65972;SHT31;52726;48.852;9.152;2022-09-16T08:34:41;12.97;92.26
65972;SHT31;52726;48.852;9.152;2022-09-16T08:37:06;12.98;92.03
65972;SHT31;52726;48.852;9.152;2022-09-16T08:39:31;12.96;91.52
65972;SHT31;52726;48.852;9.152;2022-09-16T08:49:57;13.18;89.98
65972;SHT31;52726;48.852;9.152;2022-09-16T08:52:32;13.25;90.98
65972;SHT31;52726;48.852;9.152;2022-09-16T08:55:05;13.25;90.06
65972;SHT31;52726;48.852;9.152;2022-09-16T08:57:38;13.29;90.29
65972;SHT31;52726;48.852;9.152;2022-09-16T09:00:12;13.38;90.50
65972;SHT31;52726;48.852;9.152;2022-09-16T09:05:35;13.38;88.44
65972;SHT31;52726;48.852;9.152;2022-09-16T09:11:04;13.58;90.42
65972;SHT31;52726;48.852;9.152;2022-09-16T09:19:54;13.51;88.40
65972;SHT31;52726;48.852;9.152;2022-09-16T09:30:37;13.49;88.72
65972;SHT31;52726;48.852;9.152;2022-09-16T09:33:24;13.62;89.52
65972;SHT31;52726;48.852;9.152;2022-09-16T09:41:21;13.77;89.66
65972;SHT31;52726;48.852;9.152;2022-09-16T09:43:57;13.86;89.05
65972;SHT31;52726;48.852;9.152;2022-09-16T09:46:28;13.89;88.74
65972;SHT31;52726;48.852;9.152;2022-09-16T09:49:04;13.93;88.28
65972;SHT31;52726;48.852;9.152;2022-09-16T09:51:35;14.09;89.45
65972;SHT31;52726;48.852;9.152;2022-09-16T09:56:58;14.13;88.63
65972;SHT31;52726;48.852;9.152;2022-09-16T09:59:42;14.17;88.81
65972;SHT31;52726;48.852;9.152;2022-09-16T10:02:20;13.99;85.97
65972;SHT31;52726;48.852;9.152;2022-09-16T10:04:46;13.72;85.83
65972;SHT31;52726;48.852;9.152;2022-09-16T10:07:13;13.73;86.83
65972;SHT31;52726;48.852;9.152;2022-09-16T10:09:53;13.79;87.64
65972;SHT31;52726;48.852;9.152;2022-09-16T10:12:31;13.75;86.57
65972;SHT31;52726;48.852;9.152;2022-09-16T10:14:57;13.82;89.27
65972;SHT31;52726;48.852;9.152;2022-09-16T10:17:24;13.83;88.93
65972;SHT31;52726;48.852;9.152;2022-09-16T10:19:56;13.75;87.13
65972;SHT31;52726;48.852;9.152;2022-09-16T10:22:30;13.70;86.74
65972;SHT31;52726;48.852;9.152;2022-09-16T10:25:19;13.67;87.88
65972;SHT31;52726;48.852;9.152;2022-09-16T10:27:54;13.69;87.34
65972;SHT31;52726;48.852;9.152;2022-09-16T10:30:20;13.67;88.31
65972;SHT31;52726;48.852;9.152;2022-09-16T10:32:57;13.66;88.53
65972;SHT31;52726;48.852;9.152;2022-09-16T10:35:25;13.62;87.81
65972;SHT31;52726;48.852;9.152;2022-09-16T10:40:54;13.39;85.07
65972;SHT31;52726;48.852;9.152;2022-09-16T10:43:22;13.32;84.70
65972;SHT31;52726;48.852;9.152;2022-09-16T10:45:50;13.45;86.08
65972;SHT31;52726;48.852;9.152;2022-09-16T10:48:19;13.51;86.17
65972;SHT31;52726;48.852;9.152;2022-09-16T10:51:03;13.66;86.75
65972;SHT31;52726;48.852;9.152;2022-09-16T10:53:37;13.72;86.37
65972;SHT31;52726;48.852;9.152;2022-09-16T10:56:14;13.77;85.72
65972;SHT31;52726;48.852;9.152;2022-09-16T10:58:40;13.83;86.61
65972;SHT31;52726;48.852;9.152;2022-09-16T11:01:24;13.84;85.43
65972;SHT31;52726;48.852;9.152;2022-09-16T11:06:47;13.72;85.26
65972;SHT31;52726;48.852;9.152;2022-09-16T11:09:33;13.65;85.90
65972;SHT31;52726;48.852;9.152;2022-09-16T11:25:36;13.59;85.91
65972;SHT31;52726;48.852;9.152;2022-09-16T11:30:52;13.63;85.11
65972;SHT31;52726;48.852;9.152;2022-09-16T11:33:35;13.75;86.17
65972;SHT31;52726;48.852;9.152;2022-09-16T11:36:30;13.87;85.20
65972;SHT31;52726;48.852;9.152;2022-09-16T11:41:46;13.86;84.19
65972;SHT31;52726;48.852;9.152;2022-09-16T11:44:20;13.91;84.29
65972;SHT31;52726;48.852;9.152;2022-09-16T11:47:04;14.00;84.03
65972;SHT31;52726;48.852;9.152;2022-09-16T11:55:50;14.35;83.08
65972;SHT31;52726;48.852;9.152;2022-09-16T12:00:42;14.52;77.69
65972;SHT31;52726;48.852;9.152;2022-09-16T12:03:17;14.64;77.92
65972;SHT31;52726;48.852;9.152;2022-09-16T12:05:50;14.67;76.93
65972;SHT31;52726;48.852;9.152;2022-09-16T12:08:58;14.75;75.31
65972;SHT31;52726;48.852;9.152;2022-09-16T12:11:26;15.10;76.82
65972;SHT31;52726;48.852;9.152;2022-09-16T12:14:08;15.23;75.24
65972;SHT31;52726;48.852;9.152;2022-09-16T12:16:50;15.30;75.04
65972;SHT31;52726;48.852;9.152;2022-09-16T12:19:23;15.40;73.12
65972;SHT31;52726;48.852;9.152;2022-09-16T12:22:39;15.83;72.68
65972;SHT31;52726;48.852;9.152;2022-09-16T12:25:10;15.61;72.18
65972;SHT31;52726;48.852;9.152;2022-09-16T12:28:11;15.45;71.88
65972;SHT31;52726;48.852;9.152;2022-09-16T12:30:41;15.66;72.61
65972;SHT31;52726;48.852;9.152;2022-09-16T12:33:24;15.72;69.95
65972;SHT31;52726;48.852;9.152;2022-09-16T12:36:04;15.72;73.31
65972;SHT31;52726;48.852;9.152;2022-09-16T12:38:31;15.98;72.54
65972;SHT31;52726;48.852;9.152;2022-09-16T12:46:08;15.89;70.28
65972;SHT31;52726;48.852;9.152;2022-09-16T12:54:24;15.48;64.91
65972;SHT31;52726;48.852;9.152;2022-09-16T13:02:05;15.55;66.47
65972;SHT31;52726;48.852;9.152;2022-09-16T13:04:44;15.54;65.13
65972;SHT31;52726;48.852;9.152;2022-09-16T13:07:25;15.50;64.59
65972;SHT31;52726;48.852;9.152;2022-09-16T13:10:16;15.82;64.95
65972;SHT31;52726;48.852;9.152;2022-09-16T13:12:52;16.06;64.21
65972;SHT31;52726;48.852;9.152;2022-09-16T13:15:53;16.23;63.16
65972;SHT31;52726;48.852;9.152;2022-09-16T13:18:37;16.27;64.41
65972;SHT31;52726;48.852;9.152;2022-09-16T13:21:24;16.46;66.31
65972;SHT31;52726;48.852;9.152;2022-09-16T13:24:03;16.61;65.74
65972;SHT31;52726;48.852;9.152;2022-09-16T13:26:41;16.60;64.50
65972;SHT31;52726;48.852;9.152;2022-09-16T13:31:48;16.78;64.25
65972;SHT31;52726;48.852;9.152;2022-09-16T13:34:15;16.72;63.01
65972;SHT31;52726;48.852;9.152;2022-09-16T13:36:42;16.33;65.68
65972;SHT31;52726;48.852;9.152;2022-09-16T13:39:12;16.31;65.76
65972;SHT31;52726;48.852;9.152;2022-09-16T13:41:44;16.10;64.03
65972;SHT31;52726;48.852;9.152;2022-09-16T13:44:39;16.05;65.83
65972;SHT31;52726;48.852;9.152;2022-09-16T13:47:16;15.98;66.68
65972;SHT31;52726;48.852;9.152;2022-09-16T13:49:49;15.95;65.12
65972;SHT31;52726;48.852;9.152;2022-09-16T13:52:19;15.93;66.07
65972;SHT31;52726;48.852;9.152;2022-09-16T13:54:50;15.83;67.32
65972;SHT31;52726;48.852;9.152;2022-09-16T13:57:25;15.68;64.62
65972;SHT31;52726;48.852;9.152;2022-09-16T14:00:05;15.68;64.00
65972;SHT31;52726;48.852;9.152;2022-09-16T14:08:23;15.45;64.22
65972;SHT31;52726;48.852;9.152;2022-09-16T14:13:54;15.79;65.66
65972;SHT31;52726;48.852;9.152;2022-09-16T14:16:23;16.05;67.26
65972;SHT31;52726;48.852;9.152;2022-09-16T14:21:21;16.23;66.15
65972;SHT31;52726;48.852;9.152;2022-09-16T14:23:47;16.34;66.86
65972;SHT31;52726;48.852;9.152;2022-09-16T14:26:19;16.51;65.95
65972;SHT31;52726;48.852;9.152;2022-09-16T14:28:45;16.54;63.91
65972;SHT31;52726;48.852;9.152;2022-09-16T14:31:17;16.33;64.63
65972;SHT31;52726;48.852;9.152;2022-09-16T14:33:50;16.03;65.18
65972;SHT31;52726;48.852;9.152;2022-09-16T14:36:24;16.17;66.31
65972;SHT31;52726;48.852;9.152;2022-09-16T14:38:56;16.20;67.12
65972;SHT31;52726;48.852;9.152;2022-09-16T14:41:27;16.03;64.89
65972;SHT31;52726;48.852;9.152;2022-09-16T14:43:55;16.08;65.66
65972;SHT31;52726;48.852;9.152;2022-09-16T14:46:22;15.99;64.33
65972;SHT31;52726;48.852;9.152;2022-09-16T14:48:47;15.91;66.30
65972;SHT31;52726;48.852;9.152;2022-09-16T14:51:24;15.79;67.66
65972;SHT31;52726;48.852;9.152;2022-09-16T14:53:57;15.65;67.39
65972;SHT31;52726;48.852;9.152;2022-09-16T14:56:24;15.65;68.27
65972;SHT31;52726;48.852;9.152;2022-09-16T14:58:51;15.68;68.20
65972;SHT31;52726;48.852;9.152;2022-09-16T15:01:35;15.74;68.10
65972;SHT31;52726;48.852;9.152;2022-09-16T15:04:05;15.74;67.53
65972;SHT31;52726;48.852;9.152;2022-09-16T15:06:35;15.75;68.61
65972;SHT31;52726;48.852;9.152;2022-09-16T15:09:14;15.65;66.80
65972;SHT31;52726;48.852;9.152;2022-09-16T15:11:53;15.74;69.53
65972;SHT31;52726;48.852;9.152;2022-09-16T15:14:19;15.78;68.88
65972;SHT31;52726;48.852;9.152;2022-09-16T15:16:52;15.72;67.76
65972;SHT31;52726;48.852;9.152;2022-09-16T15:19:21;15.68;69.38
65972;SHT31;52726;48.852;9.152;2022-09-16T15:21:47;15.64;68.84
65972;SHT31;52726;48.852;9.152;2022-09-16T15:24:17;15.62;69.38
65972;SHT31;52726;48.852;9.152;2022-09-16T15:26:44;15.59;68.13
65972;SHT31;52726;48.852;9.152;2022-09-16T15:31:42;15.51;69.90
65972;SHT31;52726;48.852;9.152;2022-09-16T15:34:20;15.55;70.45
65972;SHT31;52726;48.852;9.152;2022-09-16T15:39:29;15.45;68.23
65972;SHT31;52726;48.852;9.152;2022-09-16T15:42:20;15.40;67.69
65972;SHT31;52726;48.852;9.152;2022-09-16T15:44:52;15.51;68.68
65972;SHT31;52726;48.852;9.152;2022-09-16T15:47:24;15.75;67.74
65972;SHT31;52726;48.852;9.152;2022-09-16T15:49:54;15.86;67.03
65972;SHT31;52726;48.852;9.152;2022-09-16T15:52:23;15.68;66.33
65972;SHT31;52726;48.852;9.152;2022-09-16T15:54:58;15.65;67.35
65972;SHT31;52726;48.852;9.152;2022-09-16T16:02:31;15.36;69.86
65972;SHT31;52726;48.852;9.152;2022-09-16T16:05:26;15.20;68.73
65972;SHT31;52726;48.852;9.152;2022-09-16T16:07:55;15.06;67.72
65972;SHT31;52726;48.852;9.152;2022-09-16T16:10:26;15.02;68.80
65972;SHT31;52726;48.852;9.152;2022-09-16T16:12:52;14.96;69.76
65972;SHT31;52726;48.852;9.152;2022-09-16T16:15:30;14.93;69.22
65972;SHT31;52726;48.852;9.152;2022-09-16T16:17:59;14.92;71.27
65972;SHT31;52726;48.852;9.152;2022-09-16T16:20:25;14.90;69.73
65972;SHT31;52726;48.852;9.152;2022-09-16T16:22:51;15.00;70.05
65972;SHT31;52726;48.852;9.152;2022-09-16T16:25:16;15.07;69.01
65972;SHT31;52726;48.852;9.152;2022-09-16T16:27:42;15.06;70.74
65972;SHT31;52726;48.852;9.152;2022-09-16T16:30:08;14.95;69.66
65972;SHT31;52726;48.852;9.152;2022-09-16T16:32:34;14.86;69.29
65972;SHT31;52726;48.852;9.152;2022-09-16T16:35:00;14.82;69.31
65972;SHT31;52726;48.852;9.152;2022-09-16T16:37:26;14.75;68.59
65972;SHT31;52726;48.852;9.152;2022-09-16T16:39:52;14.68;67.84
65972;SHT31;52726;48.852;9.152;2022-09-16T16:42:18;14.59;67.88
65972;SHT31;52726;48.852;9.152;2022-09-16T16:44:43;14.54;69.18
65972;SHT31;52726;48.852;9.152;2022-09-16T16:47:09;14.42;68.71
65972;SHT31;52726;48.852;9.152;2022-09-16T16:49:35;14.38;68.29
65972;SHT31;52726;48.852;9.152;2022-09-16T16:52:02;14.34;67.93
65972;SHT31;52726;48.852;9.152;2022-09-16T16:54:28;14.31;67.08
65972;SHT31;52726;48.852;9.152;2022-09-16T16:56:54;14.27;68.44
65972;SHT31;52726;48.852;9.152;2022-09-16T16:59:20;14.20;70.93
65972;SHT31;52726;48.852;9.152;2022-09-16T17:01:49;14.07;71.10
65972;SHT31;52726;48.852;9.152;2022-09-16T17:04:15;14.03;72.05
65972;SHT31;52726;48.852;9.152;2022-09-16T17:06:41;13.94;73.53
65972;SHT31;52726;48.852;9.152;2022-09-16T17:09:07;13.75;77.74
65972;SHT31;52726;48.852;9.152;2022-09-16T17:11:34;13.39;78.99
65972;SHT31;52726;48.852;9.152;2022-09-16T17:14:04;13.17;82.40
65972;SHT31;52726;48.852;9.152;2022-09-16T17:16:30;12.84;83.37
65972;SHT31;52726;48.852;9.152;2022-09-16T17:18:57;12.62;84.46
65972;SHT31;52726;48.852;9.152;2022-09-16T17:21:25;12.48;85.75
65972;SHT31;52726;48.852;9.152;2022-09-16T17:23:52;12.43;85.91
65972;SHT31;52726;48.852;9.152;2022-09-16T17:26:18;12.42;85.48
65972;SHT31;52726;48.852;9.152;2022-09-16T17:28:45;12.39;87.54
65972;SHT31;52726;48.852;9.152;2022-09-16T17:31:25;12.33;86.36
65972;SHT31;52726;48.852;9.152;2022-09-16T17:33:53;12.35;87.23
65972;SHT31;52726;48.852;9.152;2022-09-16T17:36:19;12.35;86.88
65972;SHT31;52726;48.852;9.152;2022-09-16T17:38:46;12.33;87.15
65972;SHT31;52726;48.852;9.152;2022-09-16T17:41:14;12.35;86.81
65972;SHT31;52726;48.852;9.152;2022-09-16T17:43:41;12.38;87.36
65972;SHT31;52726;48.852;9.152;2022-09-16T17:46:13;12.38;86.41
65972;SHT31;52726;48.852;9.152;2022-09-16T17:48:40;12.38;87.33
65972;SHT31;52726;48.852;9.152;2022-09-16T17:51:06;12.41;86.26
65972;SHT31;52726;48.852;9.152;2022-09-16T17:53:32;12.41;85.81
65972;SHT31;52726;48.852;9.152;2022-09-16T17:56:09;12.39;85.65
65972;SHT31;52726;48.852;9.152;2022-09-16T17:58:36;12.38;86.90
65972;SHT31;52726;48.852;9.152;2022-09-16T18:01:10;12.32;86.48
65972;SHT31;52726;48.852;9.152;2022-09-16T18:03:36;12.25;85.95
65972;SHT31;52726;48.852;9.152;2022-09-16T18:06:04;12.22;86.55
65972;SHT31;52726;48.852;9.152;2022-09-16T18:08:29;12.21;87.02
65972;SHT31;52726;48.852;9.152;2022-09-16T18:10:55;12.17;86.87
65972;SHT31;52726;48.852;9.152;2022-09-16T18:13:22;12.10;87.57
65972;SHT31;52726;48.852;9.152;2022-09-16T18:15:50;12.11;87.83
65972;SHT31;52726;48.852;9.152;2022-09-16T18:18:15;12.11;88.94
65972;SHT31;52726;48.852;9.152;2022-09-16T18:20:42;12.10;89.38
65972;SHT31;52726;48.852;9.152;2022-09-16T18:23:08;12.04;89.46
65972;SHT31;52726;48.852;9.152;2022-09-16T18:25:37;11.97;89.82